Huntington, WV (25704)

2:44 AM EDT on August 25, 2016 (GMT -0400)
Westmoreland | | Change Station

Elev 548 ft 38.40 °N, 82.52 °W | Updated 40 seconds ago

Clear
Clear
75.9 °F
Feels Like 76 °F
N
0.0
Wind Variable Wind from NE
Gusts 0.0 mph

Today
High -- | Low -- °F
--% Chance of Precip.
Yesterday
High -- | Low -- °F
Precip. -- in
Pressure 30.09 in
Visibility 10.0 miles
Clouds Clear
Heat Index 76 °F
Dew Point 73 °F
Humidity 92%
Rainfall 0.00 in
Snow Depth Not available.
6:53 AM 8:09 PM
Waning Gibbous, 49% visible
METAR KHTS 250551Z 19006KT 10SM CLR 24/22 A3011 RMK AO2 SLP187 T02390217 10272 20239 56001 $
Pressure 30.09 in
Visibility 10.0 miles
Clouds Clear
Heat Index 76 °F
Dew Point 73 °F
Humidity 92%
Rainfall 0.00 in
Snow Depth Not available.
6:53 AM 8:09 PM
Waning Gibbous, 49% visible
METAR KHTS 250551Z 19006KT 10SM CLR 24/22 A3011 RMK AO2 SLP187 T02390217 10272 20239 56001 $

10-Day Weather Forecast

Almanac

Astronomy

Aug. 25, 2016 Rise Set
Actual Time
Civil Twilight
Nautical Twilight
Astronomical Twilight
Moon
Length of Visible Light
Length of Day
Tomorrow will be .
, % of the Moon is Illuminated

Today's Extremes

State Highs State Lows

Community

WunderPhotos

Upload Photos

1,934,803 photos uploaded!

WunderBlog® & News

Nearby

Air Quality

  Air Quality AQ Index Pollutant
Not available.

Snow Depth

Station Depth Elevation

Earthquake Activity

City Distance Mag. Time & Date
Minimum magnitude displayed is 2.5.

Coastal Water Temperatures

Place Temperature

Stations

Nearby Weather Stations

Station Location Temp. Windchill Dew Point Humidity Wind Precip. Elev Updated Type
                   

Watches & Warnings

There are currently no watches in effect.